Weather observations for the past three days for
Mount Pleasant, Mount Pleasant Municipal Airport
Imperial (Metric)
Date Time (cdt) Wind (mph) Vis. (mi.) Weather Sky Cond. Temperature (ºF) Relative Humidity Wind Chill (°F) Heat Index (°F) Pressure Precipitation (in)
Air Dwpt 6 hour altimeter (in) sea level (mb) 1 hr 3 hr 6 hr
Max. Min.
31 12:35 SW 9 G 16 10.00 Fair CLR 87.8 68 52% 91 29.93 0.0
31 12:15 SW 10 G 17 10.00 Fair CLR 87.8 68 52% 91 29.93 0.0
31 11:55 W 10 10.00 Fair CLR 87.8 68 52% 91 29.94 0.0
31 11:35 SW 15 G 21 10.00 Fair CLR 86 66.2 52% 88 29.94 0.0
31 11:15 SW 13 G 20 10.00 Fair CLR 86 68 55% 89 29.94 0.0
31 10:55 SW 13 G 17 10.00 Fair CLR 86 68 55% 89 29.93 0.0
31 10:35 SW 12 10.00 Fair CLR 84.2 68 58% 87 29.93 0.0
31 10:15 SW 12 G 18 10.00 Fair CLR 82.4 66.2 58% 85 29.93 0.0
31 09:55 SW 13 G 17 10.00 Fair CLR 82.4 66.2 58% 85 29.93 0.0
31 09:35 SW 14 G 20 10.00 Fair CLR 80.6 66.2 62% 83 29.93 0.0
31 09:15 SW 9 10.00 Fair CLR 78.8 64.4 61% 81 29.93 0.0
31 08:55 SW 13 G 17 10.00 Fair CLR 78.8 64.4 61% 81 29.93 0.0
31 08:35 S 10 G 18 10.00 Fair CLR 77 64.4 65% 79 29.93 0.0
31 08:15 S 9 G 18 10.00 Fair CLR 77 64.4 65% 79 29.93 0.0
31 07:55 S 10 10.00 Fair CLR 77 64.4 65% 79 29.92 0.0
31 07:35 S 9 10.00 Fair CLR 75.2 64.4 69% 77 29.93 0.0
31 07:15 S 8 10.00 Fair CLR 73.4 64.4 74% 29.92 0.0
31 06:55 S 9 10.00 Fair CLR 73.4 64.4 74% 29.92 0.0
31 06:35 S 7 10.00 Fair CLR 73.4 64.4 74% 29.92 0.0
31 06:15 S 9 10.00 Fair CLR 73.4 64.4 74% 29.91 0.0
31 05:55 S 9 10.00 Fair CLR 73.4 64.4 74% 29.91 0.0
31 05:35 S 10 10.00 Fair CLR 73.4 64.4 74% 29.92 0.0
31 05:15 S 8 10.00 Fair CLR 73.4 64.4 74% 29.92 0.0
31 04:55 S 9 10.00 Fair CLR 73.4 64.4 74% 29.91 0.0
31 04:35 S 8 10.00 Fair CLR 73.4 64.4 74% 29.91 0.0
31 04:15 S 8 10.00 Fair CLR 73.4 64.4 74% 29.91 0.0
31 03:55 S 8 10.00 Fair CLR 73.4 64.4 74% 29.91 0.0
31 03:35 S 7 10.00 Fair CLR 73.4 64.4 74% 29.91 0.0
31 03:15 S 9 10.00 Fair CLR 73.4 64.4 74% 29.91 0.0
31 02:55 S 8 10.00 Fair CLR 73.4 64.4 74% 29.9 0.0
31 02:35 S 9 10.00 Fair CLR 75.2 64.4 69% 77 29.9 0.0
31 02:15 S 8 10.00 Fair CLR 75.2 64.4 69% 77 29.91 0.0
31 01:55 S 8 10.00 Fair CLR 75.2 64.4 69% 77 29.91 0.0
31 01:35 S 8 10.00 Fair CLR 75.2 64.4 69% 77 29.91 0.0
31 01:15 S 7 10.00 Fair CLR 75.2 66.2 74% 77 29.92 0.0
31 00:55 S 8 10.00 Fair CLR 75.2 66.2 74% 77 29.92 0.0
31 00:35 S 8 10.00 Fair CLR 75.2 66.2 74% 77 29.91 0.0
31 00:15 S 8 10.00 Fair CLR 77 66.2 69% 79 29.91 0.0
30 23:55 S 8 10.00 Fair CLR 75.2 68 78% 76 29.91 0.0
30 23:35 S 8 10.00 Fair CLR 77 68 74% 79 29.91 0.0
30 23:15 S 8 10.00 Fair CLR 77 68 74% 79 29.92 0.0
30 22:55 S 7 10.00 Fair CLR 77 68 74% 79 29.92 0.0
30 22:35 S 8 10.00 Fair CLR 77 68 74% 79 29.92 0.0
30 22:15 S 8 10.00 Fair CLR 77 68 74% 79 29.93 0.0
30 21:55 S 7 10.00 Fair CLR 77 69.8 79% 79 29.93 0.0
30 21:35 S 7 10.00 Fair CLR 77 69.8 79% 79 29.93 0.0
30 21:15 S 6 10.00 Fair CLR 77 69.8 79% 79 29.92 0.0
30 20:55 S 5 10.00 Fair CLR 77 69.8 79% 79 29.92 0.0
30 20:35 SE 5 10.00 Fair CLR 78.8 71.6 79% 82 29.91 0.0
30 20:15 SE 6 10.00 Fair CLR 78.8 71.6 79% 82 29.9 0.0
30 19:55 SE 7 10.00 Fair CLR 78.8 71.6 79% 82 29.9 0.0
30 19:35 SE 5 10.00 Fair CLR 78.8 71.6 79% 82 29.9 0.0
30 19:15 SE 6 10.00 Fair CLR 80.6 71.6 74% 85 29.9 0.0
30 18:55 SE 6 10.00 Fair CLR 82.4 71.6 70% 87 29.9 0.0
30 18:35 SE 5 10.00 Fair CLR 84.2 71.6 66% 90 29.9 0.0
30 18:15 SE 6 10.00 Fair CLR 86 71.6 62% 92 29.9 0.0
30 17:55 SE 7 10.00 Fair CLR 86 71.6 62% 92 29.9 0.0
30 17:35 SE 8 10.00 Fair CLR 86 71.6 62% 92 29.89 0.0
30 17:15 SE 8 10.00 Fair CLR 86 71.6 62% 92 29.9 0.0
30 16:55 SE 9 10.00 Fair CLR 86 69.8 59% 91 29.91 0.0
30 16:35 SE 7 10.00 Fair CLR 86 69.8 59% 91 29.91 0.0
30 16:15 SE 10 G 16 10.00 Fair CLR 86 69.8 59% 91 29.92 0.0
30 15:55 SE 7 10.00 Fair CLR 87.8 69.8 55% 93 29.93 0.0
30 15:35 SE 8 10.00 Fair CLR 86 69.8 59% 91 29.94 0.0
30 15:15 S 5 10.00 Fair CLR 86 69.8 59% 91 29.94 0.0
30 14:55 SE 6 10.00 Fair CLR 86 69.8 59% 91 29.94 0.0
30 14:35 S 8 10.00 Fair CLR 84.2 69.8 62% 88 29.95 0.0
30 14:15 SE 6 10.00 Fair CLR 82.4 69.8 66% 86 29.94 0.0
30 13:55 E 6 10.00 Fair CLR 78.8 69.8 74% 81 29.94 0.0
30 13:35 SE 5 10.00 Fair CLR 78.8 68 70% 81 29.95 0.0
30 13:15 S 3 10.00 Fair CLR 78.8 68 70% 81 29.96 0.0
30 12:55 S 5 10.00 Partly Cloudy SCT110 78.8 66.2 65% 81 29.95 0.0
30 12:35 S 7 10.00 Fair CLR 78.8 64.4 61% 81 29.95 0.0
30 12:15 S 8 10.00 Fair CLR 78.8 64.4 61% 81 29.95 0.0
30 11:55 S 10 10.00 Fair CLR 78.8 64.4 61% 81 29.94 0.0
30 11:35 S 9 10.00 Fair CLR 78.8 64.4 61% 81 29.95 0.0
30 11:15 S 8 G 17 10.00 Fair CLR 78.8 64.4 61% 81 29.94 0.0
30 10:55 SW 10 G 18 10.00 Fair CLR 78.8 62.6 58% 80 29.95 0.0
30 10:35 S 10 10.00 Fair CLR 78.8 62.6 58% 80 29.95 0.0
30 10:15 SW 13 G 17 10.00 Fair CLR 78.8 64.4 61% 81 29.94 0.0
30 09:55 S 5 10.00 Fair CLR 75.2 64.4 69% 77 29.96 0.0
30 09:35 SW 5 10.00 Fair CLR 73.4 62.6 69% 29.95 0.0
30 09:15 SW 7 10.00 Fair CLR 73.4 62.6 69% 29.93 0.0
30 08:55 S 10 10.00 Fair CLR 73.4 62.6 69% 29.93 0.0
30 08:35 S 10 10.00 Fair CLR 71.6 60.8 69% 29.93 0.0
30 08:15 S 10 10.00 Fair CLR 71.6 60.8 69% 29.93 0.0
30 07:55 S 10 10.00 Fair CLR 71.6 60.8 69% 29.93 0.0
30 07:35 S 9 10.00 Fair CLR 69.8 60.8 73% 29.93 0.0
30 07:15 S 9 10.00 Fair CLR 69.8 60.8 73% 29.93 0.0
30 06:55 S 9 10.00 Fair CLR 69.8 60.8 73% 29.93 0.0
30 06:35 S 10 10.00 Fair CLR 69.8 60.8 73% 29.93 0.0
30 06:15 S 10 10.00 Fair CLR 69.8 60.8 73% 29.93 0.0
30 05:55 S 9 10.00 Fair CLR 69.8 60.8 73% 29.93 0.0
30 05:35 S 9 10.00 Fair CLR 69.8 60.8 73% 29.93 0.0
30 05:15 S 10 10.00 Fair CLR 69.8 60.8 73% 29.93 0.0
30 04:55 S 9 10.00 Fair CLR 69.8 60.8 73% 29.93 0.0
30 04:35 S 8 10.00 Fair CLR 69.8 60.8 73% 29.93 0.0
30 04:15 S 10 10.00 Fair CLR 69.8 60.8 73% 29.93 0.0
30 03:55 S 13 G 17 10.00 Fair CLR 69.8 60.8 73% 29.93 0.0
30 03:35 S 12 10.00 Fair CLR 71.6 60.8 69% 29.92 0.0
30 03:15 S 9 G 16 10.00 Fair CLR 71.6 60.8 69% 29.93 0.0
30 02:55 S 12 G 16 10.00 Fair CLR 71.6 60.8 69% 29.92 0.0
30 02:35 S 12 G 16 10.00 Fair CLR 71.6 60.8 69% 29.93 0.0
30 02:15 S 12 G 18 10.00 Fair CLR 71.6 60.8 69% 29.93 0.0
30 01:55 S 13 G 18 10.00 Fair CLR 73.4 60.8 65% 29.93 0.0
30 01:35 S 10 G 17 10.00 Fair CLR 71.6 60.8 69% 29.94 0.0
30 01:15 S 10 G 16 10.00 Fair CLR 73.4 60.8 65% 29.94 0.0
30 00:55 S 9 G 16 10.00 Fair CLR 73.4 60.8 65% 29.95 0.0
30 00:35 S 10 10.00 Fair CLR 73.4 60.8 65% 29.95 0.0
30 00:15 S 10 10.00 Fair CLR 73.4 62.6 69% 29.95 0.0
29 23:55 S 10 G 16 10.00 Fair CLR 73.4 62.6 69% 29.94 0.0
29 23:35 S 10 10.00 Fair CLR 73.4 62.6 69% 29.94 0.0
29 23:15 S 12 G 16 10.00 Fair CLR 73.4 62.6 69% 29.95 0.0
29 22:55 S 10 10.00 Fair CLR 73.4 64.4 74% 29.95 0.0
29 22:35 S 10 10.00 Fair CLR 75.2 64.4 69% 77 29.95 0.0
29 22:15 S 12 10.00 Fair CLR 73.4 64.4 74% 29.95 0.0
29 21:55 S 9 10.00 Fair CLR 73.4 64.4 74% 29.94 0.0
29 21:35 S 9 10.00 Fair CLR 73.4 64.4 74% 29.94 0.0
29 21:15 S 8 10.00 Fair CLR 73.4 64.4 74% 29.94 0.0
29 20:55 S 9 G 17 10.00 Fair CLR 73.4 64.4 74% 29.94 0.0
29 20:35 S 10 G 17 10.00 Fair CLR 73.4 64.4 74% 29.93 0.0
29 20:15 S 9 10.00 Fair CLR 73.4 64.4 74% 29.93 0.0
29 19:55 S 9 10.00 Fair CLR 75.2 64.4 69% 77 29.93 0.0
29 19:35 S 8 10.00 Fair CLR 77 66.2 69% 79 29.93 0.0
29 19:15 S 7 10.00 Fair CLR 77 68 74% 79 29.93 0.0
29 18:55 S 9 10.00 Fair CLR 77 68 74% 79 29.94 0.0
29 18:35 S 9 10.00 Fair CLR 78.8 68 70% 81 29.94 0.0
29 18:15 S 10 G 17 10.00 Fair CLR 78.8 68 70% 81 29.94 0.0
29 17:55 S 12 G 18 10.00 Fair CLR 80.6 66.2 62% 83 29.95 0.0
29 17:35 S 13 G 17 10.00 Fair CLR 80.6 66.2 62% 83 29.95 0.0
29 17:15 S 14 G 18 10.00 Fair CLR 80.6 66.2 62% 83 29.95 0.0
29 16:55 S 16 G 21 10.00 Fair CLR 80.6 68 66% 83 29.95 0.0
29 16:35 S 13 G 18 10.00 Fair CLR 78.8 66.2 65% 81 29.97 0.0
29 16:15 S 13 10.00 Fair CLR 78.8 66.2 65% 81 29.97 0.0
29 15:55 S 14 G 22 10.00 Fair CLR 78.8 64.4 61% 81 29.98 0.0
29 15:35 S 14 G 22 10.00 Fair CLR 78.8 66.2 65% 81 30 0.0
29 15:15 SE 13 10.00 Fair CLR 78.8 64.4 61% 81 30.02 0.0
29 14:55 SE 9 10.00 Fair CLR 78.8 66.2 65% 81 30.05 0.0
29 14:35 SE 6 10.00 Fair CLR 77 66.2 69% 79 30.06 0.0
29 14:15 SE 3 10.00 Fair CLR 75.2 64.4 69% 77 30.06 0.0
29 13:55 SE 10 G 17 10.00 Fair CLR 77 64.4 65% 79 30.03 0.0
29 13:35 S 12 G 17 10.00 Fair CLR 77 64.4 65% 79 30.05 0.0
29 13:15 SE 10 10.00 Fair CLR 77 64.4 65% 79 30.06 0.0
29 12:55 S 10 10.00 Fair CLR 75.2 64.4 69% 77 30.07 0.0
29 12:35 S 7 10.00 Fair CLR 73.4 64.4 74% 30.09 0.0
29 12:15 S 7 10.00 Fair CLR 73.4 62.6 69% 30.1 0.0
29 11:55 S 7 10.00 Fair CLR 73.4 62.6 69% 30.1 0.0
29 11:35 S 7 10.00 Fair CLR 73.4 62.6 69% 30.1 0.0
29 11:15 S 7 10.00 Fair CLR 73.4 62.6 69% 30.1 0.0
29 10:55 S 7 10.00 Fair CLR 71.6 62.6 73% 30.1 0.0
29 10:35 S 6 10.00 Fair CLR 71.6 62.6 73% 30.1 0.0
29 10:15 S 7 10.00 Fair CLR 71.6 62.6 73% 30.1 0.0
29 09:55 S 6 10.00 Fair CLR 71.6 62.6 73% 30.1 0.0
29 09:35 S 8 10.00 Fair CLR 69.8 60.8 73% 30.1 0.0
29 09:15 S 9 10.00 Fair CLR 69.8 60.8 73% 30.1 0.0
29 08:55 S 6 10.00 Fair CLR 68 60.8 78% 30.11 0.0
29 08:35 S 6 10.00 Fair CLR 68 60.8 78% 30.11 0.0
29 08:15 S 7 10.00 Fair CLR 66.2 60.8 83% 30.1 0.0
29 07:55 S 6 10.00 Fair CLR 64.4 60.8 88% 30.1 0.0
29 07:35 S 5 10.00 Fair CLR 64.4 60.8 88% 30.1 0.0
29 07:15 S 7 10.00 Fair CLR 62.6 60.8 94% 30.1 0.0
29 06:55 S 5 10.00 Fair CLR 62.6 59 88% 30.1 0.0
29 06:35 S 5 10.00 Fair CLR 62.6 59 88% 30.1 0.0
29 06:15 S 5 10.00 Fair CLR 62.6 59 88% 30.09 0.0
29 05:55 S 3 10.00 Fair CLR 60.8 59 94% 30.1 0.0
29 05:35 S 5 10.00 Fair CLR 62.6 59 88% 30.11 0.0
29 05:15 S 5 10.00 Fair CLR 62.6 59 88% 30.1 0.0
29 04:55 SE 6 10.00 Fair CLR 62.6 59 88% 30.1 0.0
29 04:35 SE 5 10.00 Fair CLR 62.6 59 88% 30.1 0.0
29 04:15 S 6 10.00 Fair CLR 62.6 59 88% 30.1 0.0
29 03:55 S 5 10.00 Fair CLR 60.8 59 94% 30.11 0.0
29 03:35 S 3 10.00 Fair CLR 62.6 59 88% 30.11 0.0
29 03:15 S 5 10.00 Fair CLR 62.6 59 88% 30.1 0.0
29 02:55 S 6 10.00 Fair CLR 62.6 59 88% 30.1 0.0
29 02:35 S 6 10.00 Fair CLR 62.6 59 88% 30.1 0.0
29 02:15 S 6 10.00 Fair CLR 62.6 59 88% 30.1 0.0
29 01:55 S 6 10.00 Fair CLR 62.6 59 88% 30.1 0.0
29 01:35 S 5 10.00 Fair CLR 62.6 59 88% 30.11 0.0
29 01:15 S 3 10.00 Fair CLR 62.6 59 88% 30.11 0.0
29 00:55 SE 5 10.00 Fair CLR 62.6 59 88% 30.11 0.0
29 00:35 SE 5 10.00 Fair CLR 62.6 60.8 94% 30.11 0.0
29 00:15 S 5 10.00 Fair CLR 62.6 60.8 94% 30.11 0.0
28 23:55 SE 5 10.00 Fair CLR 64.4 60.8 88% 30.11 0.0
28 23:35 SE 5 10.00 Fair CLR 64.4 60.8 88% 30.11 0.0
28 23:15 S 5 10.00 Fair CLR 64.4 62.6 94% 30.11 0.0
28 22:55 SE 3 10.00 Fair CLR 62.6 60.8 94% 30.11 0.0
28 22:35 S 5 10.00 Fair CLR 64.4 62.6 94% 30.11 0.0
28 22:15 SE 3 10.00 Fair CLR 66.2 62.6 88% 30.11 0.0
28 21:55 SE 6 10.00 Fair CLR 66.2 62.6 88% 30.11 0.0
28 21:35 SE 5 10.00 Fair CLR 68 62.6 83% 30.11 0.0
28 21:15 SE 5 10.00 Fair CLR 68 62.6 83% 30.11 0.0
28 20:55 SE 5 10.00 Fair CLR 68 64.4 88% 30.1 0.0
28 20:35 SE 5 10.00 Fair CLR 69.8 64.4 83% 30.1 0.0
28 20:15 SE 3 10.00 Fair CLR 68 64.4 88% 30.1 0.0
28 19:55 S 3 10.00 Fair CLR 69.8 64.4 83% 30.1 0.0
28 19:35 SE 3 10.00 Fair CLR 71.6 64.4 78% 30.09 0.0
28 19:15 SE 5 10.00 Fair CLR 73.4 66.2 78% 30.09 0.0
28 18:55 SE 3 10.00 Fair CLR 77 68 74% 79 30.09 0.0
28 18:35 Calm 10.00 Fair CLR 78.8 64.4 61% 81 30.1 0.0
28 18:15 Calm 10.00 Fair CLR 78.8 66.2 65% 81 30.1 0.0
28 17:55 Calm 10.00 Fair CLR 78.8 62.6 58% 80 30.1 0.0
28 17:35 Calm 10.00 Fair CLR 80.6 60.8 51% 81 30.1 0.0
28 17:15 SW 3 10.00 Fair CLR 80.6 60.8 51% 81 30.11 0.0
28 16:55 Calm 10.00 Fair CLR 82.4 60.8 48% 83 30.11 0.0
28 16:35 W 3 10.00 Partly Cloudy SCT055 82.4 59 45% 82 30.11 0.0
28 16:15 SW 6 10.00 Partly Cloudy SCT055 82.4 60.8 48% 83 30.11 0.0
28 15:55 Calm 10.00 Partly Cloudy SCT050 82.4 59 45% 82 30.11 0.0
28 15:35 Calm 10.00 Partly Cloudy SCT050 82.4 60.8 48% 83 30.12 0.0
28 15:15 Calm 10.00 Partly Cloudy SCT055 82.4 59 45% 82 30.12 0.0
28 14:55 W 3 10.00 Fair CLR 82.4 59 45% 82 30.13 0.0
28 14:35 Calm 10.00 Fair CLR 82.4 57.2 42% 82 30.13 0.0
28 14:15 NW 5 10.00 Fair CLR 80.6 59 48% 81 30.14 0.0
28 13:55 NW 5 10.00 Partly Cloudy SCT050 80.6 59 48% 81 30.15 0.0
28 13:35 W 5 10.00 Fair CLR 78.8 59 51% 80 30.15 0.0
28 13:15 W 5 10.00 Partly Cloudy SCT050 80.6 60.8 51% 81 30.16 0.0
28 12:55 NW 5 10.00 Partly Cloudy SCT050 80.6 60.8 51% 81 30.16 0.0
Date Time (cdt) Wind (mph) Vis. (mi.) Weather Sky Cond. Air Dwpt Max. Min. Relative Humidity Wind Chill (°F) Heat Index (°F) altimeter (in) sea level (mb) 1 hr 3 hr 6 hr
6 hour
Temperature (ºF) Pressure Precipitation (in)